sensor_id;sensor_type;location;lat;lon;timestamp;P1;durP1;ratioP1;P2;durP2;ratioP2
65737;SDS011;52478;51.844;6.582;2022-11-06T00:00:21;11.23;;;6.20;;
65737;SDS011;52478;51.844;6.582;2022-11-06T00:02:48;9.77;;;5.65;;
65737;SDS011;52478;51.844;6.582;2022-11-06T00:05:15;10.93;;;5.88;;
65737;SDS011;52478;51.844;6.582;2022-11-06T00:08:00;10.68;;;5.28;;
65737;SDS011;52478;51.844;6.582;2022-11-06T00:10:28;11.48;;;6.22;;
65737;SDS011;52478;51.844;6.582;2022-11-06T00:12:55;12.82;;;5.53;;
65737;SDS011;52478;51.844;6.582;2022-11-06T00:15:22;9.60;;;5.70;;
65737;SDS011;52478;51.844;6.582;2022-11-06T00:17:48;11.07;;;5.85;;
65737;SDS011;52478;51.844;6.582;2022-11-06T00:20:15;10.43;;;5.82;;
65737;SDS011;52478;51.844;6.582;2022-11-06T00:22:42;9.55;;;5.03;;
65737;SDS011;52478;51.844;6.582;2022-11-06T00:25:10;11.73;;;5.68;;
65737;SDS011;52478;51.844;6.582;2022-11-06T00:27:37;10.50;;;5.47;;
65737;SDS011;52478;51.844;6.582;2022-11-06T00:30:06;11.48;;;5.70;;
65737;SDS011;52478;51.844;6.582;2022-11-06T00:32:33;10.60;;;4.93;;
65737;SDS011;52478;51.844;6.582;2022-11-06T00:35:00;11.88;;;4.75;;
65737;SDS011;52478;51.844;6.582;2022-11-06T00:37:26;10.05;;;5.85;;
65737;SDS011;52478;51.844;6.582;2022-11-06T00:39:53;9.52;;;4.53;;
65737;SDS011;52478;51.844;6.582;2022-11-06T00:42:21;10.88;;;5.70;;
65737;SDS011;52478;51.844;6.582;2022-11-06T00:44:47;9.75;;;5.50;;
65737;SDS011;52478;51.844;6.582;2022-11-06T00:47:14;10.25;;;4.88;;
65737;SDS011;52478;51.844;6.582;2022-11-06T00:49:40;9.95;;;5.38;;
65737;SDS011;52478;51.844;6.582;2022-11-06T00:52:07;10.20;;;4.85;;
65737;SDS011;52478;51.844;6.582;2022-11-06T00:54:33;9.85;;;5.18;;
65737;SDS011;52478;51.844;6.582;2022-11-06T00:57:00;10.73;;;5.68;;
65737;SDS011;52478;51.844;6.582;2022-11-06T00:59:28;10.32;;;5.30;;
65737;SDS011;52478;51.844;6.582;2022-11-06T01:01:54;10.57;;;5.55;;
65737;SDS011;52478;51.844;6.582;2022-11-06T01:04:21;9.93;;;4.72;;
65737;SDS011;52478;51.844;6.582;2022-11-06T01:06:49;9.82;;;5.60;;
65737;SDS011;52478;51.844;6.582;2022-11-06T01:09:19;10.52;;;5.55;;
65737;SDS011;52478;51.844;6.582;2022-11-06T01:11:48;9.82;;;5.20;;
65737;SDS011;52478;51.844;6.582;2022-11-06T01:14:17;10.32;;;5.53;;
65737;SDS011;52478;51.844;6.582;2022-11-06T01:16:45;9.30;;;5.38;;
65737;SDS011;52478;51.844;6.582;2022-11-06T01:19:13;10.02;;;4.93;;
65737;SDS011;52478;51.844;6.582;2022-11-06T01:21:41;9.75;;;4.90;;
65737;SDS011;52478;51.844;6.582;2022-11-06T01:24:10;8.23;;;4.35;;
65737;SDS011;52478;51.844;6.582;2022-11-06T01:26:39;10.68;;;5.22;;
65737;SDS011;52478;51.844;6.582;2022-11-06T01:29:07;10.10;;;5.85;;
65737;SDS011;52478;51.844;6.582;2022-11-06T01:31:36;11.07;;;5.53;;
65737;SDS011;52478;51.844;6.582;2022-11-06T01:34:04;10.77;;;5.38;;
65737;SDS011;52478;51.844;6.582;2022-11-06T01:36:31;10.80;;;4.78;;
65737;SDS011;52478;51.844;6.582;2022-11-06T01:38:58;9.90;;;5.22;;
65737;SDS011;52478;51.844;6.582;2022-11-06T01:41:27;9.70;;;4.55;;
65737;SDS011;52478;51.844;6.582;2022-11-06T01:43:55;10.57;;;4.63;;
65737;SDS011;52478;51.844;6.582;2022-11-06T01:46:24;9.65;;;5.65;;
65737;SDS011;52478;51.844;6.582;2022-11-06T01:48:52;11.00;;;5.13;;
65737;SDS011;52478;51.844;6.582;2022-11-06T01:51:24;10.20;;;5.15;;
65737;SDS011;52478;51.844;6.582;2022-11-06T01:53:53;9.77;;;4.95;;
65737;SDS011;52478;51.844;6.582;2022-11-06T01:56:20;10.55;;;5.00;;
65737;SDS011;52478;51.844;6.582;2022-11-06T01:58:48;9.90;;;5.03;;
65737;SDS011;52478;51.844;6.582;2022-11-06T02:01:17;10.32;;;5.85;;
65737;SDS011;52478;51.844;6.582;2022-11-06T02:03:45;10.73;;;5.25;;
65737;SDS011;52478;51.844;6.582;2022-11-06T02:06:15;9.55;;;4.57;;
65737;SDS011;52478;51.844;6.582;2022-11-06T02:08:43;10.77;;;5.10;;
65737;SDS011;52478;51.844;6.582;2022-11-06T02:11:10;9.45;;;5.15;;
65737;SDS011;52478;51.844;6.582;2022-11-06T02:13:39;9.00;;;5.32;;
65737;SDS011;52478;51.844;6.582;2022-11-06T02:16:14;10.02;;;5.47;;
65737;SDS011;52478;51.844;6.582;2022-11-06T02:18:48;8.88;;;4.60;;
65737;SDS011;52478;51.844;6.582;2022-11-06T02:21:25;9.98;;;4.63;;
65737;SDS011;52478;51.844;6.582;2022-11-06T02:24:11;9.70;;;5.40;;
65737;SDS011;52478;51.844;6.582;2022-11-06T02:26:52;11.35;;;5.32;;
65737;SDS011;52478;51.844;6.582;2022-11-06T02:29:25;9.02;;;4.68;;
65737;SDS011;52478;51.844;6.582;2022-11-06T02:31:57;9.65;;;4.55;;
65737;SDS011;52478;51.844;6.582;2022-11-06T02:34:25;8.52;;;5.30;;
65737;SDS011;52478;51.844;6.582;2022-11-06T02:36:54;10.93;;;5.30;;
65737;SDS011;52478;51.844;6.582;2022-11-06T02:39:25;8.80;;;4.20;;
65737;SDS011;52478;51.844;6.582;2022-11-06T02:41:56;8.70;;;4.82;;
65737;SDS011;52478;51.844;6.582;2022-11-06T02:44:24;9.68;;;4.93;;
65737;SDS011;52478;51.844;6.582;2022-11-06T02:46:54;8.60;;;4.78;;
65737;SDS011;52478;51.844;6.582;2022-11-06T02:49:23;8.77;;;4.90;;
65737;SDS011;52478;51.844;6.582;2022-11-06T02:51:54;8.68;;;4.43;;
65737;SDS011;52478;51.844;6.582;2022-11-06T02:54:24;10.10;;;5.43;;
65737;SDS011;52478;51.844;6.582;2022-11-06T02:56:52;8.75;;;4.80;;
65737;SDS011;52478;51.844;6.582;2022-11-06T02:59:25;8.40;;;4.70;;
65737;SDS011;52478;51.844;6.582;2022-11-06T03:01:57;8.73;;;4.70;;
65737;SDS011;52478;51.844;6.582;2022-11-06T03:04:29;8.70;;;4.90;;
65737;SDS011;52478;51.844;6.582;2022-11-06T03:07:02;8.77;;;4.40;;
65737;SDS011;52478;51.844;6.582;2022-11-06T03:09:31;9.90;;;5.10;;
65737;SDS011;52478;51.844;6.582;2022-11-06T03:12:02;7.95;;;4.25;;
65737;SDS011;52478;51.844;6.582;2022-11-06T03:14:38;8.73;;;4.30;;
65737;SDS011;52478;51.844;6.582;2022-11-06T03:17:10;8.32;;;4.32;;
65737;SDS011;52478;51.844;6.582;2022-11-06T03:19:41;8.85;;;4.32;;
65737;SDS011;52478;51.844;6.582;2022-11-06T03:22:12;9.63;;;4.50;;
65737;SDS011;52478;51.844;6.582;2022-11-06T03:24:45;9.93;;;4.82;;
65737;SDS011;52478;51.844;6.582;2022-11-06T03:27:18;9.25;;;4.50;;
65737;SDS011;52478;51.844;6.582;2022-11-06T03:29:47;8.55;;;4.38;;
65737;SDS011;52478;51.844;6.582;2022-11-06T03:32:17;9.35;;;4.30;;
65737;SDS011;52478;51.844;6.582;2022-11-06T03:34:50;9.73;;;5.25;;
65737;SDS011;52478;51.844;6.582;2022-11-06T03:37:20;9.25;;;4.35;;
65737;SDS011;52478;51.844;6.582;2022-11-06T03:39:52;8.93;;;4.00;;
65737;SDS011;52478;51.844;6.582;2022-11-06T03:42:25;9.00;;;4.88;;
65737;SDS011;52478;51.844;6.582;2022-11-06T03:44:54;8.70;;;4.35;;
65737;SDS011;52478;51.844;6.582;2022-11-06T03:47:24;8.40;;;4.68;;
65737;SDS011;52478;51.844;6.582;2022-11-06T03:49:56;8.30;;;4.28;;
65737;SDS011;52478;51.844;6.582;2022-11-06T03:52:26;8.60;;;3.95;;
65737;SDS011;52478;51.844;6.582;2022-11-06T03:54:57;9.02;;;4.13;;
65737;SDS011;52478;51.844;6.582;2022-11-06T03:57:30;7.85;;;3.90;;
65737;SDS011;52478;51.844;6.582;2022-11-06T04:00:03;8.85;;;4.38;;
65737;SDS011;52478;51.844;6.582;2022-11-06T04:02:32;9.27;;;4.50;;
65737;SDS011;52478;51.844;6.582;2022-11-06T04:05:02;8.05;;;4.20;;
65737;SDS011;52478;51.844;6.582;2022-11-06T04:07:32;9.13;;;4.70;;
65737;SDS011;52478;51.844;6.582;2022-11-06T04:10:02;8.75;;;4.03;;
65737;SDS011;52478;51.844;6.582;2022-11-06T04:12:53;8.35;;;3.92;;
65737;SDS011;52478;51.844;6.582;2022-11-06T04:15:40;8.30;;;4.57;;
65737;SDS011;52478;51.844;6.582;2022-11-06T04:18:11;8.98;;;4.07;;
65737;SDS011;52478;51.844;6.582;2022-11-06T04:20:44;9.27;;;4.82;;
65737;SDS011;52478;51.844;6.582;2022-11-06T04:23:33;8.60;;;3.97;;
65737;SDS011;52478;51.844;6.582;2022-11-06T04:26:10;7.95;;;3.92;;
65737;SDS011;52478;51.844;6.582;2022-11-06T04:29:02;8.30;;;3.92;;
65737;SDS011;52478;51.844;6.582;2022-11-06T04:31:39;8.80;;;4.32;;
65737;SDS011;52478;51.844;6.582;2022-11-06T04:34:12;8.30;;;3.97;;
65737;SDS011;52478;51.844;6.582;2022-11-06T04:36:47;8.77;;;4.82;;
65737;SDS011;52478;51.844;6.582;2022-11-06T04:39:20;8.48;;;4.03;;
65737;SDS011;52478;51.844;6.582;2022-11-06T04:41:55;8.13;;;4.03;;
65737;SDS011;52478;51.844;6.582;2022-11-06T04:44:29;7.72;;;3.78;;
65737;SDS011;52478;51.844;6.582;2022-11-06T04:46:59;8.60;;;4.05;;
65737;SDS011;52478;51.844;6.582;2022-11-06T04:49:28;7.90;;;4.30;;
65737;SDS011;52478;51.844;6.582;2022-11-06T04:51:57;8.80;;;4.13;;
65737;SDS011;52478;51.844;6.582;2022-11-06T04:54:27;8.43;;;4.22;;
65737;SDS011;52478;51.844;6.582;2022-11-06T04:56:55;9.32;;;4.70;;
65737;SDS011;52478;51.844;6.582;2022-11-06T04:59:23;7.93;;;3.85;;
65737;SDS011;52478;51.844;6.582;2022-11-06T05:01:51;7.85;;;3.92;;
65737;SDS011;52478;51.844;6.582;2022-11-06T05:04:18;8.15;;;3.90;;
65737;SDS011;52478;51.844;6.582;2022-11-06T05:06:45;8.48;;;4.28;;
65737;SDS011;52478;51.844;6.582;2022-11-06T05:09:11;7.70;;;3.60;;
65737;SDS011;52478;51.844;6.582;2022-11-06T05:11:38;8.30;;;4.10;;
65737;SDS011;52478;51.844;6.582;2022-11-06T05:14:04;8.80;;;3.75;;
65737;SDS011;52478;51.844;6.582;2022-11-06T05:16:31;8.10;;;4.18;;
65737;SDS011;52478;51.844;6.582;2022-11-06T05:18:59;8.07;;;4.00;;
65737;SDS011;52478;51.844;6.582;2022-11-06T05:21:25;7.40;;;4.00;;
65737;SDS011;52478;51.844;6.582;2022-11-06T05:24:09;7.57;;;3.88;;
65737;SDS011;52478;51.844;6.582;2022-11-06T05:26:36;7.82;;;3.63;;
65737;SDS011;52478;51.844;6.582;2022-11-06T05:29:02;7.90;;;3.72;;
65737;SDS011;52478;51.844;6.582;2022-11-06T05:31:29;7.45;;;3.38;;
65737;SDS011;52478;51.844;6.582;2022-11-06T05:33:55;7.05;;;3.45;;
65737;SDS011;52478;51.844;6.582;2022-11-06T05:36:23;7.65;;;3.92;;
65737;SDS011;52478;51.844;6.582;2022-11-06T05:38:49;8.32;;;4.20;;
65737;SDS011;52478;51.844;6.582;2022-11-06T05:41:16;8.07;;;3.90;;
65737;SDS011;52478;51.844;6.582;2022-11-06T05:43:42;6.90;;;3.35;;
65737;SDS011;52478;51.844;6.582;2022-11-06T05:46:09;7.03;;;3.60;;
65737;SDS011;52478;51.844;6.582;2022-11-06T05:48:35;8.10;;;4.05;;
65737;SDS011;52478;51.844;6.582;2022-11-06T05:51:03;7.25;;;3.35;;
65737;SDS011;52478;51.844;6.582;2022-11-06T05:53:33;7.72;;;3.30;;
65737;SDS011;52478;51.844;6.582;2022-11-06T05:56:01;7.80;;;3.42;;
65737;SDS011;52478;51.844;6.582;2022-11-06T05:58:29;7.38;;;4.03;;
65737;SDS011;52478;51.844;6.582;2022-11-06T06:00:55;7.15;;;3.28;;
65737;SDS011;52478;51.844;6.582;2022-11-06T06:03:23;7.47;;;3.40;;
65737;SDS011;52478;51.844;6.582;2022-11-06T06:08:17;8.25;;;3.25;;
65737;SDS011;52478;51.844;6.582;2022-11-06T06:10:45;8.40;;;3.92;;
65737;SDS011;52478;51.844;6.582;2022-11-06T06:13:12;7.43;;;3.15;;
65737;SDS011;52478;51.844;6.582;2022-11-06T06:15:39;7.95;;;3.72;;
65737;SDS011;52478;51.844;6.582;2022-11-06T06:18:07;6.68;;;3.33;;
65737;SDS011;52478;51.844;6.582;2022-11-06T06:20:34;7.22;;;3.40;;
65737;SDS011;52478;51.844;6.582;2022-11-06T06:23:01;9.02;;;3.80;;
65737;SDS011;52478;51.844;6.582;2022-11-06T06:25:28;8.27;;;3.70;;
65737;SDS011;52478;51.844;6.582;2022-11-06T06:27:56;7.57;;;3.80;;
65737;SDS011;52478;51.844;6.582;2022-11-06T06:30:23;6.47;;;2.90;;
65737;SDS011;52478;51.844;6.582;2022-11-06T06:32:50;6.93;;;3.35;;
65737;SDS011;52478;51.844;6.582;2022-11-06T06:35:18;7.50;;;3.38;;
65737;SDS011;52478;51.844;6.582;2022-11-06T06:37:49;7.15;;;3.92;;
65737;SDS011;52478;51.844;6.582;2022-11-06T06:40:17;7.55;;;3.95;;
65737;SDS011;52478;51.844;6.582;2022-11-06T06:42:43;6.97;;;3.50;;
65737;SDS011;52478;51.844;6.582;2022-11-06T06:45:11;6.95;;;3.60;;
65737;SDS011;52478;51.844;6.582;2022-11-06T06:47:38;7.45;;;3.95;;
65737;SDS011;52478;51.844;6.582;2022-11-06T06:50:04;7.38;;;3.40;;
65737;SDS011;52478;51.844;6.582;2022-11-06T06:52:31;7.50;;;3.17;;
65737;SDS011;52478;51.844;6.582;2022-11-06T06:54:58;6.90;;;3.50;;
65737;SDS011;52478;51.844;6.582;2022-11-06T06:57:24;7.55;;;3.95;;
65737;SDS011;52478;51.844;6.582;2022-11-06T06:59:51;6.90;;;3.33;;
65737;SDS011;52478;51.844;6.582;2022-11-06T07:02:18;6.93;;;3.45;;
65737;SDS011;52478;51.844;6.582;2022-11-06T07:04:45;7.88;;;3.55;;
65737;SDS011;52478;51.844;6.582;2022-11-06T07:07:11;6.63;;;2.80;;
65737;SDS011;52478;51.844;6.582;2022-11-06T07:09:38;7.78;;;3.65;;
65737;SDS011;52478;51.844;6.582;2022-11-06T07:12:04;7.10;;;3.13;;
65737;SDS011;52478;51.844;6.582;2022-11-06T07:14:31;7.60;;;3.40;;
65737;SDS011;52478;51.844;6.582;2022-11-06T07:16:58;8.13;;;3.40;;
65737;SDS011;52478;51.844;6.582;2022-11-06T07:19:25;6.28;;;3.22;;
65737;SDS011;52478;51.844;6.582;2022-11-06T07:21:52;7.40;;;3.38;;
65737;SDS011;52478;51.844;6.582;2022-11-06T07:24:18;7.20;;;3.33;;
65737;SDS011;52478;51.844;6.582;2022-11-06T07:26:45;7.00;;;3.10;;
65737;SDS011;52478;51.844;6.582;2022-11-06T07:29:11;6.90;;;3.30;;
65737;SDS011;52478;51.844;6.582;2022-11-06T07:31:38;6.95;;;2.80;;
65737;SDS011;52478;51.844;6.582;2022-11-06T07:34:05;8.05;;;3.65;;
65737;SDS011;52478;51.844;6.582;2022-11-06T07:36:33;7.10;;;3.45;;
65737;SDS011;52478;51.844;6.582;2022-11-06T07:39:00;7.00;;;3.38;;
65737;SDS011;52478;51.844;6.582;2022-11-06T07:41:26;7.85;;;3.17;;
65737;SDS011;52478;51.844;6.582;2022-11-06T07:43:53;6.30;;;2.92;;
65737;SDS011;52478;51.844;6.582;2022-11-06T07:46:19;7.70;;;3.58;;
65737;SDS011;52478;51.844;6.582;2022-11-06T07:48:45;8.05;;;2.80;;
65737;SDS011;52478;51.844;6.582;2022-11-06T07:51:12;5.82;;;2.50;;
65737;SDS011;52478;51.844;6.582;2022-11-06T07:53:40;6.82;;;2.60;;
65737;SDS011;52478;51.844;6.582;2022-11-06T07:56:07;6.22;;;2.88;;
65737;SDS011;52478;51.844;6.582;2022-11-06T07:58:34;6.90;;;3.25;;
65737;SDS011;52478;51.844;6.582;2022-11-06T08:01:00;6.45;;;2.70;;
65737;SDS011;52478;51.844;6.582;2022-11-06T08:03:27;6.95;;;3.15;;
65737;SDS011;52478;51.844;6.582;2022-11-06T08:05:54;6.80;;;2.95;;
65737;SDS011;52478;51.844;6.582;2022-11-06T08:08:20;6.93;;;3.03;;
65737;SDS011;52478;51.844;6.582;2022-11-06T08:10:48;6.82;;;3.10;;
65737;SDS011;52478;51.844;6.582;2022-11-06T08:13:16;6.45;;;2.78;;
65737;SDS011;52478;51.844;6.582;2022-11-06T08:15:43;6.57;;;3.20;;
65737;SDS011;52478;51.844;6.582;2022-11-06T08:18:10;6.30;;;2.72;;
65737;SDS011;52478;51.844;6.582;2022-11-06T08:20:37;6.28;;;3.13;;
65737;SDS011;52478;51.844;6.582;2022-11-06T08:23:04;6.38;;;3.05;;
65737;SDS011;52478;51.844;6.582;2022-11-06T08:25:33;6.68;;;2.70;;
65737;SDS011;52478;51.844;6.582;2022-11-06T08:28:01;6.05;;;2.78;;
65737;SDS011;52478;51.844;6.582;2022-11-06T08:30:29;6.30;;;2.42;;
65737;SDS011;52478;51.844;6.582;2022-11-06T08:32:59;6.53;;;3.15;;
65737;SDS011;52478;51.844;6.582;2022-11-06T08:35:26;6.32;;;2.20;;
65737;SDS011;52478;51.844;6.582;2022-11-06T08:37:52;6.43;;;2.58;;
65737;SDS011;52478;51.844;6.582;2022-11-06T08:40:19;6.25;;;3.00;;
65737;SDS011;52478;51.844;6.582;2022-11-06T08:42:45;7.43;;;2.53;;
65737;SDS011;52478;51.844;6.582;2022-11-06T08:45:13;5.97;;;2.47;;
65737;SDS011;52478;51.844;6.582;2022-11-06T08:47:40;6.57;;;3.15;;
65737;SDS011;52478;51.844;6.582;2022-11-06T08:50:06;6.70;;;2.95;;
65737;SDS011;52478;51.844;6.582;2022-11-06T08:54:59;5.45;;;2.13;;
65737;SDS011;52478;51.844;6.582;2022-11-06T08:57:26;6.15;;;2.38;;
65737;SDS011;52478;51.844;6.582;2022-11-06T08:59:53;7.18;;;2.70;;
65737;SDS011;52478;51.844;6.582;2022-11-06T09:02:20;7.55;;;2.35;;
65737;SDS011;52478;51.844;6.582;2022-11-06T09:04:47;6.40;;;2.40;;
65737;SDS011;52478;51.844;6.582;2022-11-06T09:07:14;6.53;;;3.10;;
65737;SDS011;52478;51.844;6.582;2022-11-06T09:12:07;6.30;;;2.45;;
65737;SDS011;52478;51.844;6.582;2022-11-06T09:14:33;6.38;;;2.90;;
65737;SDS011;52478;51.844;6.582;2022-11-06T09:17:00;6.15;;;2.40;;
65737;SDS011;52478;51.844;6.582;2022-11-06T09:19:28;6.25;;;2.70;;
65737;SDS011;52478;51.844;6.582;2022-11-06T09:21:54;8.50;;;2.58;;
65737;SDS011;52478;51.844;6.582;2022-11-06T09:24:21;6.32;;;2.80;;
65737;SDS011;52478;51.844;6.582;2022-11-06T09:26:48;6.43;;;2.97;;
65737;SDS011;52478;51.844;6.582;2022-11-06T09:29:14;6.63;;;2.53;;
65737;SDS011;52478;51.844;6.582;2022-11-06T09:31:41;7.10;;;2.78;;
65737;SDS011;52478;51.844;6.582;2022-11-06T09:34:07;6.13;;;2.97;;
65737;SDS011;52478;51.844;6.582;2022-11-06T09:36:35;5.97;;;2.40;;
65737;SDS011;52478;51.844;6.582;2022-11-06T09:39:02;7.45;;;2.60;;
65737;SDS011;52478;51.844;6.582;2022-11-06T09:41:31;6.25;;;2.80;;
65737;SDS011;52478;51.844;6.582;2022-11-06T09:44:08;6.05;;;2.30;;
65737;SDS011;52478;51.844;6.582;2022-11-06T09:46:51;6.78;;;2.40;;
65737;SDS011;52478;51.844;6.582;2022-11-06T09:49:20;7.65;;;2.80;;
65737;SDS011;52478;51.844;6.582;2022-11-06T09:51:51;5.90;;;2.70;;
65737;SDS011;52478;51.844;6.582;2022-11-06T09:54:24;7.07;;;2.20;;
65737;SDS011;52478;51.844;6.582;2022-11-06T09:56:54;6.05;;;2.20;;
65737;SDS011;52478;51.844;6.582;2022-11-06T09:59:24;7.78;;;2.95;;
65737;SDS011;52478;51.844;6.582;2022-11-06T10:07:06;7.47;;;2.60;;
65737;SDS011;52478;51.844;6.582;2022-11-06T10:09:44;6.43;;;2.40;;
65737;SDS011;52478;51.844;6.582;2022-11-06T10:12:11;7.13;;;2.90;;
65737;SDS011;52478;51.844;6.582;2022-11-06T10:14:52;7.82;;;2.97;;
65737;SDS011;52478;51.844;6.582;2022-11-06T10:17:28;6.68;;;2.40;;
65737;SDS011;52478;51.844;6.582;2022-11-06T10:20:07;6.10;;;2.33;;
65737;SDS011;52478;51.844;6.582;2022-11-06T10:22:44;6.32;;;2.42;;
65737;SDS011;52478;51.844;6.582;2022-11-06T10:25:23;5.85;;;2.20;;
65737;SDS011;52478;51.844;6.582;2022-11-06T10:28:00;5.95;;;2.70;;
65737;SDS011;52478;51.844;6.582;2022-11-06T10:30:29;6.45;;;2.33;;
65737;SDS011;52478;51.844;6.582;2022-11-06T10:33:07;5.65;;;2.45;;
65737;SDS011;52478;51.844;6.582;2022-11-06T10:35:44;6.15;;;2.47;;
65737;SDS011;52478;51.844;6.582;2022-11-06T10:38:17;5.22;;;2.03;;
65737;SDS011;52478;51.844;6.582;2022-11-06T10:40:47;6.55;;;2.63;;
65737;SDS011;52478;51.844;6.582;2022-11-06T10:43:20;4.82;;;2.00;;
65737;SDS011;52478;51.844;6.582;2022-11-06T10:45:57;5.55;;;2.20;;
65737;SDS011;52478;51.844;6.582;2022-11-06T10:48:30;6.03;;;2.10;;
65737;SDS011;52478;51.844;6.582;2022-11-06T10:51:03;5.53;;;2.40;;
65737;SDS011;52478;51.844;6.582;2022-11-06T10:53:45;7.82;;;2.20;;
65737;SDS011;52478;51.844;6.582;2022-11-06T10:56:28;6.20;;;2.67;;
65737;SDS011;52478;51.844;6.582;2022-11-06T10:59:04;6.43;;;2.70;;
65737;SDS011;52478;51.844;6.582;2022-11-06T11:01:32;5.53;;;1.90;;
65737;SDS011;52478;51.844;6.582;2022-11-06T11:03:59;6.18;;;2.50;;
65737;SDS011;52478;51.844;6.582;2022-11-06T11:06:26;5.72;;;2.08;;
65737;SDS011;52478;51.844;6.582;2022-11-06T11:08:53;5.55;;;2.25;;
65737;SDS011;52478;51.844;6.582;2022-11-06T11:11:21;5.40;;;2.13;;
65737;SDS011;52478;51.844;6.582;2022-11-06T11:13:49;5.28;;;2.22;;
65737;SDS011;52478;51.844;6.582;2022-11-06T11:16:37;5.40;;;2.30;;
65737;SDS011;52478;51.844;6.582;2022-11-06T11:19:13;7.25;;;2.20;;
65737;SDS011;52478;51.844;6.582;2022-11-06T11:21:51;8.32;;;2.42;;
65737;SDS011;52478;51.844;6.582;2022-11-06T11:24:20;6.40;;;2.13;;
65737;SDS011;52478;51.844;6.582;2022-11-06T11:26:47;6.00;;;2.40;;
65737;SDS011;52478;51.844;6.582;2022-11-06T11:29:16;6.60;;;2.50;;
65737;SDS011;52478;51.844;6.582;2022-11-06T11:31:49;6.68;;;2.17;;
65737;SDS011;52478;51.844;6.582;2022-11-06T11:34:17;6.22;;;2.40;;
65737;SDS011;52478;51.844;6.582;2022-11-06T11:36:47;6.38;;;2.30;;
65737;SDS011;52478;51.844;6.582;2022-11-06T11:39:17;6.03;;;2.28;;
65737;SDS011;52478;51.844;6.582;2022-11-06T11:41:46;5.90;;;2.30;;
65737;SDS011;52478;51.844;6.582;2022-11-06T11:44:13;6.47;;;2.40;;
65737;SDS011;52478;51.844;6.582;2022-11-06T11:46:44;7.22;;;2.47;;
65737;SDS011;52478;51.844;6.582;2022-11-06T11:49:24;6.75;;;2.22;;
65737;SDS011;52478;51.844;6.582;2022-11-06T11:51:51;8.65;;;2.22;;
65737;SDS011;52478;51.844;6.582;2022-11-06T11:54:19;6.25;;;2.42;;
65737;SDS011;52478;51.844;6.582;2022-11-06T11:56:51;6.80;;;2.50;;
65737;SDS011;52478;51.844;6.582;2022-11-06T11:59:20;6.25;;;2.40;;
65737;SDS011;52478;51.844;6.582;2022-11-06T12:01:48;5.97;;;2.33;;
65737;SDS011;52478;51.844;6.582;2022-11-06T12:04:19;5.80;;;2.05;;
65737;SDS011;52478;51.844;6.582;2022-11-06T12:06:50;7.82;;;2.70;;
65737;SDS011;52478;51.844;6.582;2022-11-06T12:09:19;5.80;;;2.10;;
65737;SDS011;52478;51.844;6.582;2022-11-06T12:11:46;6.90;;;2.13;;
65737;SDS011;52478;51.844;6.582;2022-11-06T12:14:36;7.43;;;2.30;;
65737;SDS011;52478;51.844;6.582;2022-11-06T12:17:10;5.78;;;2.60;;
65737;SDS011;52478;51.844;6.582;2022-11-06T12:19:43;6.88;;;2.17;;
65737;SDS011;52478;51.844;6.582;2022-11-06T12:22:15;5.60;;;2.22;;
65737;SDS011;52478;51.844;6.582;2022-11-06T12:24:47;6.47;;;2.20;;
65737;SDS011;52478;51.844;6.582;2022-11-06T12:27:20;7.57;;;2.40;;
65737;SDS011;52478;51.844;6.582;2022-11-06T12:29:52;5.90;;;2.25;;
65737;SDS011;52478;51.844;6.582;2022-11-06T12:32:30;5.78;;;1.83;;
65737;SDS011;52478;51.844;6.582;2022-11-06T12:35:16;6.28;;;2.17;;
65737;SDS011;52478;51.844;6.582;2022-11-06T12:37:50;6.10;;;2.10;;
65737;SDS011;52478;51.844;6.582;2022-11-06T12:40:24;5.97;;;2.42;;
65737;SDS011;52478;51.844;6.582;2022-11-06T12:42:59;5.95;;;2.15;;
65737;SDS011;52478;51.844;6.582;2022-11-06T12:45:40;5.70;;;2.33;;
65737;SDS011;52478;51.844;6.582;2022-11-06T12:48:19;6.50;;;2.28;;
65737;SDS011;52478;51.844;6.582;2022-11-06T12:50:58;5.82;;;2.50;;
65737;SDS011;52478;51.844;6.582;2022-11-06T12:53:33;5.47;;;2.40;;
65737;SDS011;52478;51.844;6.582;2022-11-06T12:56:11;5.47;;;2.22;;
65737;SDS011;52478;51.844;6.582;2022-11-06T12:58:43;6.05;;;2.50;;
65737;SDS011;52478;51.844;6.582;2022-11-06T13:01:24;5.28;;;1.90;;
65737;SDS011;52478;51.844;6.582;2022-11-06T13:07:18;6.28;;;1.92;;
65737;SDS011;52478;51.844;6.582;2022-11-06T13:09:55;5.32;;;2.10;;
65737;SDS011;52478;51.844;6.582;2022-11-06T13:12:28;5.90;;;2.08;;
65737;SDS011;52478;51.844;6.582;2022-11-06T13:15:04;5.75;;;1.95;;
65737;SDS011;52478;51.844;6.582;2022-11-06T13:17:43;6.55;;;2.40;;
65737;SDS011;52478;51.844;6.582;2022-11-06T13:20:16;6.75;;;2.10;;
65737;SDS011;52478;51.844;6.582;2022-11-06T13:22:49;5.03;;;2.20;;
65737;SDS011;52478;51.844;6.582;2022-11-06T13:25:22;5.97;;;2.20;;
65737;SDS011;52478;51.844;6.582;2022-11-06T13:30:24;6.28;;;2.10;;
65737;SDS011;52478;51.844;6.582;2022-11-06T13:32:59;6.18;;;2.05;;
65737;SDS011;52478;51.844;6.582;2022-11-06T13:35:31;5.93;;;2.08;;
65737;SDS011;52478;51.844;6.582;2022-11-06T13:37:59;6.35;;;2.47;;
65737;SDS011;52478;51.844;6.582;2022-11-06T13:40:28;6.15;;;2.40;;
65737;SDS011;52478;51.844;6.582;2022-11-06T13:43:00;5.53;;;1.90;;
65737;SDS011;52478;51.844;6.582;2022-11-06T13:45:32;6.00;;;2.28;;
65737;SDS011;52478;51.844;6.582;2022-11-06T13:48:18;5.15;;;2.10;;
65737;SDS011;52478;51.844;6.582;2022-11-06T13:50:56;5.00;;;1.98;;
65737;SDS011;52478;51.844;6.582;2022-11-06T13:53:27;6.03;;;2.42;;
65737;SDS011;52478;51.844;6.582;2022-11-06T13:56:04;6.20;;;2.00;;
65737;SDS011;52478;51.844;6.582;2022-11-06T14:01:53;6.60;;;2.05;;
65737;SDS011;52478;51.844;6.582;2022-11-06T14:04:32;5.90;;;2.20;;
65737;SDS011;52478;51.844;6.582;2022-11-06T14:07:13;5.55;;;2.00;;
65737;SDS011;52478;51.844;6.582;2022-11-06T14:09:42;5.38;;;1.83;;
65737;SDS011;52478;51.844;6.582;2022-11-06T14:12:13;6.57;;;2.13;;
65737;SDS011;52478;51.844;6.582;2022-11-06T14:14:42;5.90;;;2.15;;
65737;SDS011;52478;51.844;6.582;2022-11-06T14:17:10;6.53;;;2.75;;
65737;SDS011;52478;51.844;6.582;2022-11-06T14:19:40;5.95;;;2.15;;
65737;SDS011;52478;51.844;6.582;2022-11-06T14:22:22;6.13;;;2.10;;
65737;SDS011;52478;51.844;6.582;2022-11-06T14:24:51;5.60;;;1.85;;
65737;SDS011;52478;51.844;6.582;2022-11-06T14:30:40;5.80;;;2.20;;
65737;SDS011;52478;51.844;6.582;2022-11-06T14:33:08;6.00;;;2.03;;
65737;SDS011;52478;51.844;6.582;2022-11-06T14:44:17;6.22;;;1.80;;
65737;SDS011;52478;51.844;6.582;2022-11-06T14:46:49;6.68;;;2.33;;
65737;SDS011;52478;51.844;6.582;2022-11-06T14:49:19;6.03;;;2.30;;
65737;SDS011;52478;51.844;6.582;2022-11-06T14:51:58;6.35;;;2.25;;
65737;SDS011;52478;51.844;6.582;2022-11-06T14:54:27;6.68;;;2.33;;
65737;SDS011;52478;51.844;6.582;2022-11-06T14:56:54;6.05;;;2.22;;
65737;SDS011;52478;51.844;6.582;2022-11-06T14:59:26;6.15;;;2.10;;
65737;SDS011;52478;51.844;6.582;2022-11-06T15:01:57;6.60;;;2.30;;
65737;SDS011;52478;51.844;6.582;2022-11-06T15:04:31;5.15;;;1.85;;
65737;SDS011;52478;51.844;6.582;2022-11-06T15:07:07;6.72;;;2.40;;
65737;SDS011;52478;51.844;6.582;2022-11-06T15:09:44;5.35;;;2.03;;
65737;SDS011;52478;51.844;6.582;2022-11-06T15:12:12;6.35;;;2.40;;
65737;SDS011;52478;51.844;6.582;2022-11-06T15:14:54;5.97;;;2.22;;
65737;SDS011;52478;51.844;6.582;2022-11-06T15:17:24;4.97;;;1.70;;
65737;SDS011;52478;51.844;6.582;2022-11-06T15:20:13;6.20;;;2.00;;
65737;SDS011;52478;51.844;6.582;2022-11-06T15:22:56;5.13;;;1.85;;
65737;SDS011;52478;51.844;6.582;2022-11-06T15:25:26;5.75;;;2.10;;
65737;SDS011;52478;51.844;6.582;2022-11-06T15:27:58;6.38;;;2.33;;
65737;SDS011;52478;51.844;6.582;2022-11-06T15:30:29;5.70;;;2.10;;
65737;SDS011;52478;51.844;6.582;2022-11-06T15:32:58;5.38;;;1.80;;
65737;SDS011;52478;51.844;6.582;2022-11-06T15:35:30;6.43;;;2.65;;
65737;SDS011;52478;51.844;6.582;2022-11-06T15:38:03;6.28;;;2.20;;